sensor_id;sensor_type;location;lat;lon;timestamp;P1;durP1;ratioP1;P2;durP2;ratioP2
22490;SDS011;11412;50.802;4.350;2023-11-19T00:00:19;2.67;;;2.45;;
22490;SDS011;11412;50.802;4.350;2023-11-19T00:02:45;3.88;;;2.20;;
22490;SDS011;11412;50.802;4.350;2023-11-19T00:05:12;3.67;;;2.30;;
22490;SDS011;11412;50.802;4.350;2023-11-19T00:07:38;5.32;;;2.53;;
22490;SDS011;11412;50.802;4.350;2023-11-19T00:10:08;3.30;;;2.10;;
22490;SDS011;11412;50.802;4.350;2023-11-19T00:12:38;5.38;;;2.17;;
22490;SDS011;11412;50.802;4.350;2023-11-19T00:15:05;7.75;;;2.50;;
22490;SDS011;11412;50.802;4.350;2023-11-19T00:17:31;6.88;;;2.00;;
22490;SDS011;11412;50.802;4.350;2023-11-19T00:19:57;5.25;;;2.03;;
22490;SDS011;11412;50.802;4.350;2023-11-19T00:22:23;4.15;;;2.53;;
22490;SDS011;11412;50.802;4.350;2023-11-19T00:24:49;3.83;;;2.00;;
22490;SDS011;11412;50.802;4.350;2023-11-19T00:27:15;7.55;;;2.33;;
22490;SDS011;11412;50.802;4.350;2023-11-19T00:29:40;5.30;;;2.28;;
22490;SDS011;11412;50.802;4.350;2023-11-19T00:32:06;6.00;;;2.10;;
22490;SDS011;11412;50.802;4.350;2023-11-19T00:34:32;5.72;;;2.03;;
22490;SDS011;11412;50.802;4.350;2023-11-19T00:36:58;4.35;;;1.90;;
22490;SDS011;11412;50.802;4.350;2023-11-19T00:39:23;8.82;;;2.58;;
22490;SDS011;11412;50.802;4.350;2023-11-19T00:41:49;6.28;;;2.20;;
22490;SDS011;11412;50.802;4.350;2023-11-19T00:44:15;7.90;;;2.28;;
22490;SDS011;11412;50.802;4.350;2023-11-19T00:46:40;4.50;;;1.90;;
22490;SDS011;11412;50.802;4.350;2023-11-19T00:49:06;7.38;;;2.10;;
22490;SDS011;11412;50.802;4.350;2023-11-19T00:51:32;7.10;;;1.92;;
22490;SDS011;11412;50.802;4.350;2023-11-19T00:53:58;8.65;;;1.95;;
22490;SDS011;11412;50.802;4.350;2023-11-19T00:56:24;6.20;;;2.20;;
22490;SDS011;11412;50.802;4.350;2023-11-19T00:58:50;7.68;;;1.98;;
22490;SDS011;11412;50.802;4.350;2023-11-19T01:01:15;12.32;;;2.40;;
22490;SDS011;11412;50.802;4.350;2023-11-19T01:03:41;11.82;;;2.55;;
22490;SDS011;11412;50.802;4.350;2023-11-19T01:06:07;12.40;;;3.28;;
22490;SDS011;11412;50.802;4.350;2023-11-19T01:08:33;11.68;;;2.17;;
22490;SDS011;11412;50.802;4.350;2023-11-19T01:11:00;7.60;;;1.75;;
22490;SDS011;11412;50.802;4.350;2023-11-19T01:13:27;4.75;;;2.00;;
22490;SDS011;11412;50.802;4.350;2023-11-19T01:15:52;11.43;;;2.22;;
22490;SDS011;11412;50.802;4.350;2023-11-19T01:18:18;8.77;;;2.03;;
22490;SDS011;11412;50.802;4.350;2023-11-19T01:20:44;9.38;;;2.30;;
22490;SDS011;11412;50.802;4.350;2023-11-19T01:23:09;8.18;;;2.03;;
22490;SDS011;11412;50.802;4.350;2023-11-19T01:25:35;11.02;;;2.60;;
22490;SDS011;11412;50.802;4.350;2023-11-19T01:28:03;10.80;;;2.35;;
22490;SDS011;11412;50.802;4.350;2023-11-19T01:30:29;11.00;;;2.50;;
22490;SDS011;11412;50.802;4.350;2023-11-19T01:32:55;10.52;;;2.25;;
22490;SDS011;11412;50.802;4.350;2023-11-19T01:35:21;11.70;;;2.65;;
22490;SDS011;11412;50.802;4.350;2023-11-19T01:37:48;14.43;;;2.67;;
22490;SDS011;11412;50.802;4.350;2023-11-19T01:40:19;10.45;;;2.10;;
22490;SDS011;11412;50.802;4.350;2023-11-19T01:42:45;6.30;;;1.80;;
22490;SDS011;11412;50.802;4.350;2023-11-19T01:45:11;13.40;;;2.60;;
22490;SDS011;11412;50.802;4.350;2023-11-19T01:47:49;11.75;;;2.75;;
22490;SDS011;11412;50.802;4.350;2023-11-19T01:50:16;9.30;;;2.35;;
22490;SDS011;11412;50.802;4.350;2023-11-19T01:52:42;9.27;;;2.28;;
22490;SDS011;11412;50.802;4.350;2023-11-19T01:55:08;11.90;;;2.55;;
22490;SDS011;11412;50.802;4.350;2023-11-19T01:57:35;13.90;;;2.90;;
22490;SDS011;11412;50.802;4.350;2023-11-19T02:00:03;18.73;;;2.88;;
22490;SDS011;11412;50.802;4.350;2023-11-19T02:02:29;11.25;;;2.47;;
22490;SDS011;11412;50.802;4.350;2023-11-19T02:04:55;12.07;;;2.15;;
22490;SDS011;11412;50.802;4.350;2023-11-19T02:07:22;12.93;;;2.38;;
22490;SDS011;11412;50.802;4.350;2023-11-19T02:09:50;14.32;;;2.85;;
22490;SDS011;11412;50.802;4.350;2023-11-19T02:12:16;11.57;;;2.40;;
22490;SDS011;11412;50.802;4.350;2023-11-19T02:14:41;10.90;;;2.55;;
22490;SDS011;11412;50.802;4.350;2023-11-19T02:17:08;13.68;;;2.40;;
22490;SDS011;11412;50.802;4.350;2023-11-19T02:20:05;12.07;;;2.42;;
22490;SDS011;11412;50.802;4.350;2023-11-19T02:22:34;14.82;;;2.72;;
22490;SDS011;11412;50.802;4.350;2023-11-19T02:25:00;11.00;;;2.28;;
22490;SDS011;11412;50.802;4.350;2023-11-19T02:30:10;10.70;;;2.25;;
22490;SDS011;11412;50.802;4.350;2023-11-19T02:32:36;12.27;;;2.63;;
22490;SDS011;11412;50.802;4.350;2023-11-19T02:35:06;14.23;;;2.28;;
22490;SDS011;11412;50.802;4.350;2023-11-19T02:37:33;15.15;;;2.35;;
22490;SDS011;11412;50.802;4.350;2023-11-19T02:39:59;11.65;;;2.40;;
22490;SDS011;11412;50.802;4.350;2023-11-19T02:42:28;12.18;;;2.40;;
22490;SDS011;11412;50.802;4.350;2023-11-19T02:44:53;10.77;;;2.47;;
22490;SDS011;11412;50.802;4.350;2023-11-19T02:47:19;20.77;;;3.10;;
22490;SDS011;11412;50.802;4.350;2023-11-19T02:49:46;14.30;;;2.22;;
22490;SDS011;11412;50.802;4.350;2023-11-19T02:52:12;10.77;;;2.78;;
22490;SDS011;11412;50.802;4.350;2023-11-19T02:54:39;13.23;;;3.22;;
22490;SDS011;11412;50.802;4.350;2023-11-19T02:57:06;12.88;;;2.15;;
22490;SDS011;11412;50.802;4.350;2023-11-19T02:59:35;16.05;;;2.65;;
22490;SDS011;11412;50.802;4.350;2023-11-19T03:02:05;20.77;;;2.85;;
22490;SDS011;11412;50.802;4.350;2023-11-19T03:04:36;20.23;;;2.85;;
22490;SDS011;11412;50.802;4.350;2023-11-19T03:07:05;14.00;;;2.60;;
22490;SDS011;11412;50.802;4.350;2023-11-19T03:09:32;21.67;;;2.65;;
22490;SDS011;11412;50.802;4.350;2023-11-19T03:12:00;15.82;;;2.63;;
22490;SDS011;11412;50.802;4.350;2023-11-19T03:14:26;16.58;;;2.65;;
22490;SDS011;11412;50.802;4.350;2023-11-19T03:16:52;12.05;;;2.83;;
22490;SDS011;11412;50.802;4.350;2023-11-19T03:19:18;15.23;;;2.78;;
22490;SDS011;11412;50.802;4.350;2023-11-19T03:21:44;18.25;;;2.63;;
22490;SDS011;11412;50.802;4.350;2023-11-19T03:24:10;14.82;;;2.45;;
22490;SDS011;11412;50.802;4.350;2023-11-19T03:26:38;15.10;;;2.70;;
22490;SDS011;11412;50.802;4.350;2023-11-19T03:29:04;18.30;;;3.13;;
22490;SDS011;11412;50.802;4.350;2023-11-19T03:31:29;12.75;;;2.72;;
22490;SDS011;11412;50.802;4.350;2023-11-19T03:33:55;11.57;;;2.25;;
22490;SDS011;11412;50.802;4.350;2023-11-19T03:36:21;14.25;;;2.53;;
22490;SDS011;11412;50.802;4.350;2023-11-19T03:38:47;15.70;;;2.63;;
22490;SDS011;11412;50.802;4.350;2023-11-19T03:41:13;12.63;;;2.10;;
22490;SDS011;11412;50.802;4.350;2023-11-19T03:43:39;16.38;;;2.92;;
22490;SDS011;11412;50.802;4.350;2023-11-19T03:46:15;14.55;;;2.55;;
22490;SDS011;11412;50.802;4.350;2023-11-19T03:48:44;18.75;;;2.85;;
22490;SDS011;11412;50.802;4.350;2023-11-19T03:51:13;15.23;;;2.63;;
22490;SDS011;11412;50.802;4.350;2023-11-19T03:53:42;19.02;;;4.15;;
22490;SDS011;11412;50.802;4.350;2023-11-19T03:56:08;16.85;;;2.80;;
22490;SDS011;11412;50.802;4.350;2023-11-19T03:58:38;16.02;;;2.75;;
22490;SDS011;11412;50.802;4.350;2023-11-19T04:01:04;16.00;;;2.55;;
22490;SDS011;11412;50.802;4.350;2023-11-19T04:03:30;12.75;;;2.67;;
22490;SDS011;11412;50.802;4.350;2023-11-19T04:05:56;19.60;;;3.00;;
22490;SDS011;11412;50.802;4.350;2023-11-19T04:08:22;17.30;;;3.13;;
22490;SDS011;11412;50.802;4.350;2023-11-19T04:10:48;16.00;;;3.00;;
22490;SDS011;11412;50.802;4.350;2023-11-19T04:13:14;17.92;;;3.05;;
22490;SDS011;11412;50.802;4.350;2023-11-19T04:15:39;17.42;;;3.40;;
22490;SDS011;11412;50.802;4.350;2023-11-19T04:18:05;15.65;;;2.97;;
22490;SDS011;11412;50.802;4.350;2023-11-19T04:20:30;16.45;;;2.40;;
22490;SDS011;11412;50.802;4.350;2023-11-19T04:22:56;17.35;;;2.58;;
22490;SDS011;11412;50.802;4.350;2023-11-19T04:25:23;16.08;;;2.90;;
22490;SDS011;11412;50.802;4.350;2023-11-19T04:27:51;21.63;;;3.13;;
22490;SDS011;11412;50.802;4.350;2023-11-19T04:30:17;16.75;;;2.65;;
22490;SDS011;11412;50.802;4.350;2023-11-19T04:32:43;17.73;;;3.13;;
22490;SDS011;11412;50.802;4.350;2023-11-19T04:35:09;22.67;;;3.20;;
22490;SDS011;11412;50.802;4.350;2023-11-19T04:37:35;16.05;;;2.92;;
22490;SDS011;11412;50.802;4.350;2023-11-19T04:40:01;18.27;;;2.80;;
22490;SDS011;11412;50.802;4.350;2023-11-19T04:42:27;28.98;;;3.85;;
22490;SDS011;11412;50.802;4.350;2023-11-19T04:44:54;23.73;;;3.13;;
22490;SDS011;11412;50.802;4.350;2023-11-19T04:47:20;19.02;;;3.08;;
22490;SDS011;11412;50.802;4.350;2023-11-19T04:49:46;14.80;;;3.15;;
22490;SDS011;11412;50.802;4.350;2023-11-19T04:52:11;17.65;;;3.58;;
22490;SDS011;11412;50.802;4.350;2023-11-19T04:54:43;24.40;;;3.55;;
22490;SDS011;11412;50.802;4.350;2023-11-19T04:57:09;14.80;;;3.00;;
22490;SDS011;11412;50.802;4.350;2023-11-19T04:59:38;23.67;;;3.38;;
22490;SDS011;11412;50.802;4.350;2023-11-19T05:02:04;20.70;;;3.45;;
22490;SDS011;11412;50.802;4.350;2023-11-19T05:04:30;19.55;;;3.28;;
22490;SDS011;11412;50.802;4.350;2023-11-19T05:06:56;14.63;;;3.13;;
22490;SDS011;11412;50.802;4.350;2023-11-19T05:09:22;21.42;;;3.90;;
22490;SDS011;11412;50.802;4.350;2023-11-19T05:11:48;22.25;;;3.75;;
22490;SDS011;11412;50.802;4.350;2023-11-19T05:14:13;26.92;;;4.72;;
22490;SDS011;11412;50.802;4.350;2023-11-19T05:16:40;15.88;;;3.03;;
22490;SDS011;11412;50.802;4.350;2023-11-19T05:19:06;17.83;;;3.83;;
22490;SDS011;11412;50.802;4.350;2023-11-19T05:21:32;21.63;;;3.97;;
22490;SDS011;11412;50.802;4.350;2023-11-19T05:23:58;23.33;;;3.47;;
22490;SDS011;11412;50.802;4.350;2023-11-19T05:26:24;26.45;;;3.85;;
22490;SDS011;11412;50.802;4.350;2023-11-19T05:28:50;23.90;;;3.83;;
22490;SDS011;11412;50.802;4.350;2023-11-19T05:31:16;20.42;;;3.20;;
22490;SDS011;11412;50.802;4.350;2023-11-19T05:33:43;28.67;;;4.30;;
22490;SDS011;11412;50.802;4.350;2023-11-19T05:36:10;17.40;;;3.15;;
22490;SDS011;11412;50.802;4.350;2023-11-19T05:38:36;18.45;;;3.22;;
22490;SDS011;11412;50.802;4.350;2023-11-19T05:41:02;18.05;;;2.85;;
22490;SDS011;11412;50.802;4.350;2023-11-19T05:43:28;16.73;;;3.83;;
22490;SDS011;11412;50.802;4.350;2023-11-19T05:45:53;25.23;;;4.63;;
22490;SDS011;11412;50.802;4.350;2023-11-19T05:48:19;26.63;;;4.38;;
22490;SDS011;11412;50.802;4.350;2023-11-19T05:50:45;23.52;;;4.05;;
22490;SDS011;11412;50.802;4.350;2023-11-19T05:53:11;20.42;;;3.95;;
22490;SDS011;11412;50.802;4.350;2023-11-19T05:55:39;27.00;;;3.83;;
22490;SDS011;11412;50.802;4.350;2023-11-19T05:58:11;20.40;;;4.20;;
22490;SDS011;11412;50.802;4.350;2023-11-19T06:00:37;21.35;;;3.67;;
22490;SDS011;11412;50.802;4.350;2023-11-19T06:03:05;24.63;;;3.88;;
22490;SDS011;11412;50.802;4.350;2023-11-19T06:05:31;15.40;;;3.08;;
22490;SDS011;11412;50.802;4.350;2023-11-19T06:07:57;27.02;;;3.15;;
22490;SDS011;11412;50.802;4.350;2023-11-19T06:10:23;21.13;;;4.15;;
22490;SDS011;11412;50.802;4.350;2023-11-19T06:12:56;27.10;;;3.53;;
22490;SDS011;11412;50.802;4.350;2023-11-19T06:15:28;27.38;;;3.53;;
22490;SDS011;11412;50.802;4.350;2023-11-19T06:17:54;24.00;;;4.07;;
22490;SDS011;11412;50.802;4.350;2023-11-19T06:20:25;23.42;;;4.90;;
22490;SDS011;11412;50.802;4.350;2023-11-19T06:22:53;22.67;;;3.40;;
22490;SDS011;11412;50.802;4.350;2023-11-19T06:25:19;16.83;;;3.30;;
22490;SDS011;11412;50.802;4.350;2023-11-19T06:27:44;19.65;;;3.08;;
22490;SDS011;11412;50.802;4.350;2023-11-19T06:30:10;20.38;;;3.80;;
22490;SDS011;11412;50.802;4.350;2023-11-19T06:32:36;19.17;;;3.45;;
22490;SDS011;11412;50.802;4.350;2023-11-19T06:35:02;22.30;;;3.40;;
22490;SDS011;11412;50.802;4.350;2023-11-19T06:37:30;22.40;;;3.08;;
22490;SDS011;11412;50.802;4.350;2023-11-19T06:39:55;33.22;;;4.72;;
22490;SDS011;11412;50.802;4.350;2023-11-19T06:42:21;18.92;;;3.47;;
22490;SDS011;11412;50.802;4.350;2023-11-19T06:44:47;17.52;;;3.15;;
22490;SDS011;11412;50.802;4.350;2023-11-19T06:47:12;19.85;;;3.10;;
22490;SDS011;11412;50.802;4.350;2023-11-19T06:49:38;17.50;;;3.03;;
22490;SDS011;11412;50.802;4.350;2023-11-19T06:52:04;19.13;;;3.47;;
22490;SDS011;11412;50.802;4.350;2023-11-19T06:54:30;17.63;;;3.40;;
22490;SDS011;11412;50.802;4.350;2023-11-19T06:56:56;19.40;;;3.60;;
22490;SDS011;11412;50.802;4.350;2023-11-19T06:59:22;18.50;;;3.28;;
22490;SDS011;11412;50.802;4.350;2023-11-19T07:01:48;25.90;;;3.50;;
22490;SDS011;11412;50.802;4.350;2023-11-19T07:04:14;16.73;;;3.50;;
22490;SDS011;11412;50.802;4.350;2023-11-19T07:06:39;20.77;;;3.47;;
22490;SDS011;11412;50.802;4.350;2023-11-19T07:09:08;21.13;;;3.40;;
22490;SDS011;11412;50.802;4.350;2023-11-19T07:11:41;18.33;;;3.53;;
22490;SDS011;11412;50.802;4.350;2023-11-19T07:14:07;26.35;;;4.07;;
22490;SDS011;11412;50.802;4.350;2023-11-19T07:16:33;22.25;;;4.20;;
22490;SDS011;11412;50.802;4.350;2023-11-19T07:19:03;17.60;;;4.10;;
22490;SDS011;11412;50.802;4.350;2023-11-19T07:21:30;24.73;;;3.40;;
22490;SDS011;11412;50.802;4.350;2023-11-19T07:23:56;26.30;;;4.03;;
22490;SDS011;11412;50.802;4.350;2023-11-19T07:26:22;24.58;;;3.95;;
22490;SDS011;11412;50.802;4.350;2023-11-19T07:28:48;19.63;;;3.60;;
22490;SDS011;11412;50.802;4.350;2023-11-19T07:31:14;22.30;;;4.13;;
22490;SDS011;11412;50.802;4.350;2023-11-19T07:33:41;21.10;;;3.78;;
22490;SDS011;11412;50.802;4.350;2023-11-19T07:36:08;18.63;;;4.00;;
22490;SDS011;11412;50.802;4.350;2023-11-19T07:38:34;23.17;;;3.65;;
22490;SDS011;11412;50.802;4.350;2023-11-19T07:41:00;22.38;;;3.78;;
22490;SDS011;11412;50.802;4.350;2023-11-19T07:43:26;25.17;;;4.68;;
22490;SDS011;11412;50.802;4.350;2023-11-19T07:45:51;16.88;;;3.20;;
22490;SDS011;11412;50.802;4.350;2023-11-19T07:48:17;21.70;;;3.88;;
22490;SDS011;11412;50.802;4.350;2023-11-19T07:50:48;17.42;;;3.72;;
22490;SDS011;11412;50.802;4.350;2023-11-19T07:53:17;15.27;;;3.28;;
22490;SDS011;11412;50.802;4.350;2023-11-19T07:55:43;17.83;;;3.33;;
22490;SDS011;11412;50.802;4.350;2023-11-19T07:58:09;20.08;;;3.40;;
22490;SDS011;11412;50.802;4.350;2023-11-19T08:00:37;25.95;;;3.53;;
22490;SDS011;11412;50.802;4.350;2023-11-19T08:03:03;16.42;;;3.72;;
22490;SDS011;11412;50.802;4.350;2023-11-19T08:05:29;20.83;;;3.78;;
22490;SDS011;11412;50.802;4.350;2023-11-19T08:07:58;26.10;;;4.00;;
22490;SDS011;11412;50.802;4.350;2023-11-19T08:10:23;18.50;;;3.60;;
22490;SDS011;11412;50.802;4.350;2023-11-19T08:12:49;26.88;;;3.85;;
22490;SDS011;11412;50.802;4.350;2023-11-19T08:15:15;21.88;;;4.07;;
22490;SDS011;11412;50.802;4.350;2023-11-19T08:17:41;17.83;;;3.40;;
22490;SDS011;11412;50.802;4.350;2023-11-19T08:20:08;15.77;;;3.28;;
22490;SDS011;11412;50.802;4.350;2023-11-19T08:22:37;18.73;;;3.45;;
22490;SDS011;11412;50.802;4.350;2023-11-19T08:25:06;22.33;;;3.95;;
22490;SDS011;11412;50.802;4.350;2023-11-19T08:27:32;20.63;;;3.80;;
22490;SDS011;11412;50.802;4.350;2023-11-19T08:29:58;20.38;;;3.75;;
22490;SDS011;11412;50.802;4.350;2023-11-19T08:32:24;16.15;;;3.03;;
22490;SDS011;11412;50.802;4.350;2023-11-19T08:34:51;19.77;;;2.95;;
22490;SDS011;11412;50.802;4.350;2023-11-19T08:37:17;22.90;;;3.53;;
22490;SDS011;11412;50.802;4.350;2023-11-19T08:39:48;18.60;;;3.00;;
22490;SDS011;11412;50.802;4.350;2023-11-19T08:42:14;15.88;;;3.65;;
22490;SDS011;11412;50.802;4.350;2023-11-19T08:44:41;16.75;;;3.85;;
22490;SDS011;11412;50.802;4.350;2023-11-19T08:47:08;19.40;;;3.17;;
22490;SDS011;11412;50.802;4.350;2023-11-19T08:49:36;18.63;;;3.28;;
22490;SDS011;11412;50.802;4.350;2023-11-19T08:52:01;21.08;;;3.83;;
22490;SDS011;11412;50.802;4.350;2023-11-19T08:54:27;17.55;;;3.47;;
22490;SDS011;11412;50.802;4.350;2023-11-19T08:56:53;14.82;;;2.67;;
22490;SDS011;11412;50.802;4.350;2023-11-19T08:59:18;17.55;;;3.22;;
22490;SDS011;11412;50.802;4.350;2023-11-19T09:01:44;24.27;;;3.45;;
22490;SDS011;11412;50.802;4.350;2023-11-19T09:04:10;16.00;;;2.95;;
22490;SDS011;11412;50.802;4.350;2023-11-19T09:06:36;25.85;;;3.72;;
22490;SDS011;11412;50.802;4.350;2023-11-19T09:09:02;21.48;;;3.35;;
22490;SDS011;11412;50.802;4.350;2023-11-19T09:11:29;14.32;;;2.97;;
22490;SDS011;11412;50.802;4.350;2023-11-19T09:13:55;26.27;;;4.32;;
22490;SDS011;11412;50.802;4.350;2023-11-19T09:16:20;20.52;;;4.22;;
22490;SDS011;11412;50.802;4.350;2023-11-19T09:18:46;12.93;;;2.90;;
22490;SDS011;11412;50.802;4.350;2023-11-19T09:21:12;16.92;;;3.90;;
22490;SDS011;11412;50.802;4.350;2023-11-19T09:23:38;12.95;;;2.92;;
22490;SDS011;11412;50.802;4.350;2023-11-19T09:26:08;15.23;;;3.28;;
22490;SDS011;11412;50.802;4.350;2023-11-19T09:28:33;10.27;;;2.53;;
22490;SDS011;11412;50.802;4.350;2023-11-19T09:30:59;17.35;;;2.85;;
22490;SDS011;11412;50.802;4.350;2023-11-19T09:33:25;14.50;;;2.42;;
22490;SDS011;11412;50.802;4.350;2023-11-19T09:35:51;15.65;;;3.70;;
22490;SDS011;11412;50.802;4.350;2023-11-19T09:38:17;16.88;;;3.20;;
22490;SDS011;11412;50.802;4.350;2023-11-19T09:40:42;14.50;;;2.67;;
22490;SDS011;11412;50.802;4.350;2023-11-19T09:43:08;13.65;;;2.88;;
22490;SDS011;11412;50.802;4.350;2023-11-19T09:46:09;12.90;;;2.85;;
22490;SDS011;11412;50.802;4.350;2023-11-19T09:48:32;15.90;;;3.58;;
22490;SDS011;11412;50.802;4.350;2023-11-19T09:50:59;18.55;;;3.55;;
22490;SDS011;11412;50.802;4.350;2023-11-19T09:53:25;16.40;;;3.63;;
22490;SDS011;11412;50.802;4.350;2023-11-19T09:55:51;12.80;;;3.03;;
22490;SDS011;11412;50.802;4.350;2023-11-19T09:58:18;15.07;;;2.75;;
22490;SDS011;11412;50.802;4.350;2023-11-19T10:00:44;12.85;;;3.25;;
22490;SDS011;11412;50.802;4.350;2023-11-19T10:03:10;13.88;;;3.10;;
22490;SDS011;11412;50.802;4.350;2023-11-19T10:05:39;12.13;;;3.10;;
22490;SDS011;11412;50.802;4.350;2023-11-19T10:08:06;14.27;;;2.67;;
22490;SDS011;11412;50.802;4.350;2023-11-19T10:10:32;14.68;;;3.20;;
22490;SDS011;11412;50.802;4.350;2023-11-19T10:12:59;14.82;;;3.67;;
22490;SDS011;11412;50.802;4.350;2023-11-19T10:15:25;14.48;;;3.05;;
22490;SDS011;11412;50.802;4.350;2023-11-19T10:17:52;16.75;;;3.45;;
22490;SDS011;11412;50.802;4.350;2023-11-19T10:20:24;16.02;;;3.33;;
22490;SDS011;11412;50.802;4.350;2023-11-19T10:22:53;16.10;;;3.25;;
22490;SDS011;11412;50.802;4.350;2023-11-19T10:25:23;18.63;;;3.58;;
22490;SDS011;11412;50.802;4.350;2023-11-19T10:27:51;17.30;;;3.35;;
22490;SDS011;11412;50.802;4.350;2023-11-19T10:30:21;23.80;;;3.72;;
22490;SDS011;11412;50.802;4.350;2023-11-19T10:33:06;19.48;;;3.28;;
22490;SDS011;11412;50.802;4.350;2023-11-19T10:35:33;10.75;;;2.67;;
22490;SDS011;11412;50.802;4.350;2023-11-19T10:38:01;11.65;;;3.08;;
22490;SDS011;11412;50.802;4.350;2023-11-19T10:40:38;15.10;;;2.72;;
22490;SDS011;11412;50.802;4.350;2023-11-19T10:43:07;8.73;;;2.08;;
22490;SDS011;11412;50.802;4.350;2023-11-19T10:45:34;19.15;;;3.25;;
22490;SDS011;11412;50.802;4.350;2023-11-19T10:48:00;10.85;;;2.60;;
22490;SDS011;11412;50.802;4.350;2023-11-19T10:50:27;8.25;;;2.45;;
22490;SDS011;11412;50.802;4.350;2023-11-19T10:52:55;12.60;;;2.55;;
22490;SDS011;11412;50.802;4.350;2023-11-19T10:55:25;13.95;;;2.60;;
22490;SDS011;11412;50.802;4.350;2023-11-19T10:57:54;18.05;;;3.38;;
22490;SDS011;11412;50.802;4.350;2023-11-19T11:00:38;14.77;;;2.88;;
22490;SDS011;11412;50.802;4.350;2023-11-19T11:03:18;14.95;;;2.80;;
22490;SDS011;11412;50.802;4.350;2023-11-19T11:05:48;14.15;;;2.55;;
22490;SDS011;11412;50.802;4.350;2023-11-19T11:08:15;12.38;;;3.22;;
22490;SDS011;11412;50.802;4.350;2023-11-19T11:10:51;23.15;;;3.65;;
22490;SDS011;11412;50.802;4.350;2023-11-19T11:13:18;16.70;;;3.10;;
22490;SDS011;11412;50.802;4.350;2023-11-19T11:15:44;19.15;;;3.30;;
22490;SDS011;11412;50.802;4.350;2023-11-19T11:18:12;13.68;;;2.83;;
22490;SDS011;11412;50.802;4.350;2023-11-19T11:20:38;17.63;;;3.25;;
22490;SDS011;11412;50.802;4.350;2023-11-19T11:28:26;21.05;;;3.83;;
22490;SDS011;11412;50.802;4.350;2023-11-19T11:31:08;18.38;;;3.30;;
22490;SDS011;11412;50.802;4.350;2023-11-19T11:39:17;22.25;;;4.20;;
22490;SDS011;11412;50.802;4.350;2023-11-19T11:41:47;17.15;;;3.55;;
22490;SDS011;11412;50.802;4.350;2023-11-19T11:58:17;18.15;;;3.05;;
22490;SDS011;11412;50.802;4.350;2023-11-19T12:00:44;11.27;;;2.40;;
22490;SDS011;11412;50.802;4.350;2023-11-19T12:03:12;16.48;;;3.42;;
22490;SDS011;11412;50.802;4.350;2023-11-19T12:05:40;15.30;;;3.55;;
22490;SDS011;11412;50.802;4.350;2023-11-19T12:08:11;16.23;;;2.65;;
22490;SDS011;11412;50.802;4.350;2023-11-19T12:10:49;9.15;;;2.42;;
22490;SDS011;11412;50.802;4.350;2023-11-19T12:13:16;8.57;;;2.40;;
22490;SDS011;11412;50.802;4.350;2023-11-19T12:20:53;14.13;;;2.67;;
22490;SDS011;11412;50.802;4.350;2023-11-19T12:23:19;11.77;;;2.45;;
22490;SDS011;11412;50.802;4.350;2023-11-19T12:25:45;10.52;;;2.42;;
22490;SDS011;11412;50.802;4.350;2023-11-19T12:28:11;10.27;;;2.78;;
22490;SDS011;11412;50.802;4.350;2023-11-19T12:30:38;16.38;;;3.67;;
22490;SDS011;11412;50.802;4.350;2023-11-19T12:33:07;12.07;;;3.00;;
22490;SDS011;11412;50.802;4.350;2023-11-19T12:35:38;15.00;;;3.40;;
22490;SDS011;11412;50.802;4.350;2023-11-19T12:38:04;13.82;;;2.50;;
22490;SDS011;11412;50.802;4.350;2023-11-19T12:40:31;13.05;;;2.65;;
22490;SDS011;11412;50.802;4.350;2023-11-19T12:42:56;16.02;;;3.67;;
22490;SDS011;11412;50.802;4.350;2023-11-19T12:45:22;14.40;;;2.90;;
22490;SDS011;11412;50.802;4.350;2023-11-19T12:48:07;16.27;;;2.95;;
22490;SDS011;11412;50.802;4.350;2023-11-19T12:50:56;15.73;;;4.10;;
22490;SDS011;11412;50.802;4.350;2023-11-19T12:53:23;13.00;;;2.75;;
22490;SDS011;11412;50.802;4.350;2023-11-19T12:55:50;20.50;;;3.58;;
22490;SDS011;11412;50.802;4.350;2023-11-19T12:58:29;15.98;;;3.47;;
22490;SDS011;11412;50.802;4.350;2023-11-19T13:01:06;18.30;;;3.88;;
22490;SDS011;11412;50.802;4.350;2023-11-19T13:03:33;16.42;;;3.60;;
22490;SDS011;11412;50.802;4.350;2023-11-19T13:06:04;16.52;;;3.47;;
22490;SDS011;11412;50.802;4.350;2023-11-19T13:08:39;12.73;;;2.95;;
22490;SDS011;11412;50.802;4.350;2023-11-19T13:11:06;20.30;;;3.45;;
22490;SDS011;11412;50.802;4.350;2023-11-19T13:13:33;13.88;;;2.75;;
22490;SDS011;11412;50.802;4.350;2023-11-19T13:16:18;14.73;;;3.00;;
22490;SDS011;11412;50.802;4.350;2023-11-19T13:18:44;15.57;;;2.63;;
22490;SDS011;11412;50.802;4.350;2023-11-19T13:21:10;16.85;;;3.45;;
22490;SDS011;11412;50.802;4.350;2023-11-19T13:23:35;15.00;;;3.00;;
22490;SDS011;11412;50.802;4.350;2023-11-19T13:26:01;17.63;;;3.70;;
22490;SDS011;11412;50.802;4.350;2023-11-19T13:28:27;17.27;;;3.67;;
22490;SDS011;11412;50.802;4.350;2023-11-19T13:30:53;11.95;;;3.15;;
22490;SDS011;11412;50.802;4.350;2023-11-19T13:33:18;15.85;;;3.28;;
22490;SDS011;11412;50.802;4.350;2023-11-19T13:35:44;16.60;;;3.85;;
22490;SDS011;11412;50.802;4.350;2023-11-19T13:38:09;13.77;;;3.17;;
22490;SDS011;11412;50.802;4.350;2023-11-19T13:40:35;16.90;;;3.63;;
22490;SDS011;11412;50.802;4.350;2023-11-19T13:43:01;17.45;;;3.40;;
22490;SDS011;11412;50.802;4.350;2023-11-19T13:45:26;18.02;;;3.58;;
22490;SDS011;11412;50.802;4.350;2023-11-19T13:47:52;19.10;;;3.38;;
22490;SDS011;11412;50.802;4.350;2023-11-19T13:50:18;18.92;;;4.47;;
22490;SDS011;11412;50.802;4.350;2023-11-19T13:52:45;19.63;;;3.55;;
22490;SDS011;11412;50.802;4.350;2023-11-19T13:55:12;18.83;;;3.03;;
22490;SDS011;11412;50.802;4.350;2023-11-19T13:57:38;18.45;;;3.53;;
22490;SDS011;11412;50.802;4.350;2023-11-19T14:00:06;11.10;;;3.05;;
22490;SDS011;11412;50.802;4.350;2023-11-19T14:02:41;18.83;;;3.65;;
22490;SDS011;11412;50.802;4.350;2023-11-19T14:05:08;22.75;;;3.70;;
22490;SDS011;11412;50.802;4.350;2023-11-19T14:07:36;21.98;;;3.45;;
22490;SDS011;11412;50.802;4.350;2023-11-19T14:10:04;20.45;;;3.78;;
22490;SDS011;11412;50.802;4.350;2023-11-19T14:12:32;18.13;;;3.78;;
22490;SDS011;11412;50.802;4.350;2023-11-19T14:14:58;20.45;;;3.95;;
22490;SDS011;11412;50.802;4.350;2023-11-19T14:17:25;18.35;;;3.63;;
22490;SDS011;11412;50.802;4.350;2023-11-19T14:19:51;17.35;;;3.83;;
22490;SDS011;11412;50.802;4.350;2023-11-19T14:22:17;22.15;;;4.53;;
22490;SDS011;11412;50.802;4.350;2023-11-19T14:24:43;18.50;;;3.30;;
22490;SDS011;11412;50.802;4.350;2023-11-19T14:27:09;19.33;;;3.80;;
22490;SDS011;11412;50.802;4.350;2023-11-19T14:29:35;22.92;;;3.70;;
22490;SDS011;11412;50.802;4.350;2023-11-19T14:32:02;30.95;;;4.07;;
22490;SDS011;11412;50.802;4.350;2023-11-19T14:34:29;16.70;;;2.97;;
22490;SDS011;11412;50.802;4.350;2023-11-19T14:36:55;18.98;;;3.78;;
22490;SDS011;11412;50.802;4.350;2023-11-19T14:39:21;19.08;;;3.25;;
22490;SDS011;11412;50.802;4.350;2023-11-19T14:41:47;21.08;;;5.13;;
22490;SDS011;11412;50.802;4.350;2023-11-19T14:44:12;22.88;;;3.75;;
22490;SDS011;11412;50.802;4.350;2023-11-19T14:46:38;17.60;;;3.75;;
22490;SDS011;11412;50.802;4.350;2023-11-19T14:49:04;20.13;;;3.55;;
22490;SDS011;11412;50.802;4.350;2023-11-19T14:51:30;18.65;;;3.38;;
22490;SDS011;11412;50.802;4.350;2023-11-19T14:53:56;22.77;;;4.40;;
22490;SDS011;11412;50.802;4.350;2023-11-19T14:56:22;17.42;;;3.20;;
22490;SDS011;11412;50.802;4.350;2023-11-19T14:58:48;13.88;;;2.60;;
22490;SDS011;11412;50.802;4.350;2023-11-19T15:01:16;16.75;;;3.55;;
22490;SDS011;11412;50.802;4.350;2023-11-19T15:03:41;19.73;;;3.15;;
22490;SDS011;11412;50.802;4.350;2023-11-19T15:06:07;16.30;;;3.35;;
22490;SDS011;11412;50.802;4.350;2023-11-19T15:08:33;21.40;;;3.80;;